Tigard, Oregon
Current Conditions -  °F | °C
As of 4:53 AM on Wednesday 22 Oct 2014 (Local Time) from KHIO Reporting Station
Overcast Overcast  
Wind Chill: 57°   Ceiling: 3200
Heat Index: 57°   Visibility: 10mi
Dew Point: 51°   Wind: 21mph
Humidity: 81%   Direction: 180°S
Pressure: 29.76"   Gusts: 26mph
Location:  45.43°N, 122.76°W
Report Text: KHIO 221153Z AUTO 18018G23KT 10SM FEW027 OVC032 14/11 A2976 RMK AO2 PK WND 16026/1117 SLP076 P0001 60004 70005 T01390106 10139 20122 58012 TSNO
Loading
Personal Weather Stations






























Interactive Weather Map
Tropical Storm Tracking
New forecast layout! Learn more

10-Day Weather Forecast

Advertisements
Track Severe Weather on mobile